Time;durP1;ratioP1;P1;durP2;ratioP2;P2;SDS_P1;SDS_P2;PMS_P1;PMS_P2;Temp;Humidity;BMP_temperature;BMP_pressure;BME280_temperature;BME280_humidity;BME280_pressure;Samples;Min_cycle;Max_cycle;Signal;HPM_P1;HPM_P2
2022/08/21 00:00:25;;;;;;;9.23;3.05;;;18.10;99.90;;;;;;5035742;28;20046;-83
2022/08/21 00:02:57;;;;;;;7.38;3.20;;;18.00;99.90;;;;;;5036057;28;20038;-84
2022/08/21 00:05:24;;;;;;;9.15;3.30;;;17.90;99.90;;;;;;5034800;28;20552;-83
2022/08/21 00:07:50;;;;;;;11.20;3.40;;;17.90;99.90;;;;;;5037968;28;20051;-83
2022/08/21 00:10:16;;;;;;;10.88;3.47;;;17.90;99.90;;;;;;5035986;28;20033;-83
2022/08/21 00:12:42;;;;;;;12.35;3.55;;;17.90;99.90;;;;;;5039331;28;20406;-82
2022/08/21 00:15:11;;;;;;;10.55;3.67;;;18.20;99.90;;;;;;5040795;28;20486;-83
2022/08/21 00:17:36;;;;;;;6.68;3.05;;;17.80;99.90;;;;;;5035952;28;20446;-83
2022/08/21 00:20:06;;;;;;;10.20;3.60;;;17.80;99.90;;;;;;5035668;28;20033;-83
2022/08/21 00:22:32;;;;;;;10.70;3.25;;;17.60;99.90;;;;;;5029783;28;20042;-83
2022/08/21 00:24:57;;;;;;;12.13;3.75;;;17.50;99.90;;;;;;5034425;28;20045;-83
2022/08/21 00:27:23;;;;;;;8.82;3.80;;;17.70;99.90;;;;;;5035091;28;20392;-82
2022/08/21 00:29:49;;;;;;;9.20;3.55;;;17.40;99.90;;;;;;5016652;28;20483;-83
2022/08/21 00:32:21;;;;;;;8.63;3.47;;;17.40;99.90;;;;;;5021766;28;20045;-83
2022/08/21 00:34:46;;;;;;;12.30;3.65;;;17.60;99.90;;;;;;5034375;28;20411;-83
2022/08/21 00:37:12;;;;;;;8.52;3.58;;;17.30;99.90;;;;;;5034826;28;20047;-83
2022/08/21 00:39:37;;;;;;;14.05;3.97;;;17.20;99.90;;;;;;5034616;28;20052;-83
2022/08/21 00:42:03;;;;;;;10.15;3.88;;;17.20;99.90;;;;;;5035440;28;20060;-83
2022/08/21 00:44:30;;;;;;;9.70;3.58;;;17.20;99.90;;;;;;5034004;28;20087;-83
2022/08/21 00:46:57;;;;;;;8.05;3.80;;;17.10;99.90;;;;;;5034849;28;20112;-83
2022/08/21 00:49:22;;;;;;;10.43;3.70;;;17.10;99.90;;;;;;5034509;28;20064;-82
2022/08/21 00:51:55;;;;;;;10.48;4.00;;;17.10;99.90;;;;;;5034271;28;20482;-82
2022/08/21 00:54:24;;;;;;;8.93;3.85;;;17.10;99.90;;;;;;5033430;28;20512;-83
2022/08/21 00:56:53;;;;;;;8.60;4.20;;;17.10;99.90;;;;;;5035634;28;20025;-83
2022/08/21 00:59:21;;;;;;;10.75;4.47;;;17.00;99.90;;;;;;5037130;28;20037;-83
2022/08/21 01:01:47;;;;;;;10.40;4.45;;;17.00;99.90;;;;;;5035026;28;20049;-83
2022/08/21 01:04:13;;;;;;;11.27;4.15;;;17.00;99.90;;;;;;5032830;28;20045;-83
2022/08/21 01:06:39;;;;;;;9.50;4.00;;;16.90;99.90;;;;;;5034529;28;20390;-82
2022/08/21 01:09:04;;;;;;;10.13;4.28;;;17.00;99.90;;;;;;5033668;28;20045;-83
2022/08/21 01:11:30;;;;;;;12.25;3.90;;;16.90;99.90;;;;;;5034892;28;20045;-83
2022/08/21 01:13:56;;;;;;;10.57;4.15;;;16.90;99.90;;;;;;5034985;28;20486;-83
2022/08/21 01:16:22;;;;;;;11.10;4.13;;;16.90;99.90;;;;;;5034480;28;20099;-83
2022/08/21 01:18:49;;;;;;;11.70;4.10;;;16.90;99.90;;;;;;5033334;28;20422;-83
2022/08/21 01:21:22;;;;;;;13.55;4.30;;;16.80;99.90;;;;;;5033896;28;20041;-82
2022/08/21 01:23:50;;;;;;;8.85;3.90;;;16.80;99.90;;;;;;5034081;28;20041;-82
2022/08/21 01:26:19;;;;;;;9.45;3.95;;;17.20;99.90;;;;;;5032474;28;20055;-82
2022/08/21 01:28:57;;;;;;;10.70;4.22;;;16.80;99.90;;;;;;5036548;28;20084;-82
2022/08/21 01:31:26;;;;;;;7.20;3.75;;;16.70;99.90;;;;;;5054638;28;20045;-81
2022/08/21 01:33:52;;;;;;;9.07;4.50;;;16.70;99.90;;;;;;5034456;28;20452;-82
2022/08/21 01:36:17;;;;;;;10.98;4.20;;;16.70;99.90;;;;;;5034572;28;20397;-82
2022/08/21 01:38:43;;;;;;;9.00;4.13;;;16.70;99.90;;;;;;5034415;28;20045;-82
2022/08/21 01:41:09;;;;;;;8.48;4.32;;;16.70;99.90;;;;;;5020569;28;20383;-82
2022/08/21 01:43:34;;;;;;;10.60;4.40;;;16.60;99.90;;;;;;5032225;28;20048;-83
2022/08/21 01:46:02;;;;;;;7.70;4.05;;;16.60;99.90;;;;;;5033220;28;20140;-82
2022/08/21 01:48:28;;;;;;;12.88;4.07;;;16.60;99.90;;;;;;5031684;28;20050;-83
2022/08/21 01:50:54;;;;;;;9.60;4.28;;;16.60;99.90;;;;;;5033040;28;20547;-82
2022/08/21 01:53:19;;;;;;;10.25;4.32;;;16.60;99.90;;;;;;5035703;28;20029;-82
2022/08/21 01:55:45;;;;;;;10.18;4.28;;;16.70;99.90;;;;;;5032478;28;20041;-82
2022/08/21 01:58:10;;;;;;;7.50;3.90;;;16.60;99.90;;;;;;5034233;28;20338;-82
2022/08/21 02:00:36;;;;;;;8.80;4.38;;;16.80;99.90;;;;;;5035031;28;20049;-83
2022/08/21 02:03:02;;;;;;;14.35;4.55;;;16.90;99.90;;;;;;5049694;28;20045;-82
2022/08/21 02:05:28;;;;;;;9.93;4.28;;;16.70;99.90;;;;;;5032793;28;20401;-82
2022/08/21 02:07:54;;;;;;;12.05;4.05;;;17.30;99.90;;;;;;5033715;28;20037;-82
2022/08/21 02:10:23;;;;;;;10.93;3.95;;;16.60;99.90;;;;;;5033045;28;20057;-82
2022/08/21 02:12:49;;;;;;;8.75;4.35;;;16.70;99.90;;;;;;5036091;28;20041;-83
2022/08/21 02:15:16;;;;;;;12.95;4.10;;;16.70;99.90;;;;;;5032829;28;20056;-82
2022/08/21 02:17:44;;;;;;;10.00;4.30;;;16.70;99.90;;;;;;5031174;28;20116;-82
2022/08/21 02:20:17;;;;;;;10.65;4.47;;;16.70;99.90;;;;;;5033722;28;20481;-82
2022/08/21 02:22:43;;;;;;;8.52;4.05;;;16.80;99.90;;;;;;5045760;28;20048;-81
2022/08/21 02:25:09;;;;;;;11.13;4.55;;;17.10;99.90;;;;;;5033370;28;20051;-82
2022/08/21 02:27:40;;;;;;;8.48;4.32;;;16.70;99.90;;;;;;5023550;28;20065;-82
2022/08/21 02:30:07;;;;;;;10.70;4.57;;;16.70;99.90;;;;;;5033477;28;20045;-82
2022/08/21 02:32:32;;;;;;;9.02;4.50;;;16.70;99.90;;;;;;5033398;28;20033;-82
2022/08/21 02:34:58;;;;;;;12.55;4.70;;;16.70;99.90;;;;;;5015801;28;20132;-82
2022/08/21 02:37:24;;;;;;;10.20;4.55;;;16.70;99.90;;;;;;5031778;28;20041;-82
2022/08/21 02:39:50;;;;;;;8.80;4.32;;;16.80;99.90;;;;;;5033610;28;20037;-82
2022/08/21 02:42:16;;;;;;;8.98;4.45;;;16.80;99.90;;;;;;5031812;28;20087;-82
2022/08/21 02:44:42;;;;;;;9.75;4.90;;;16.70;99.90;;;;;;5030832;28;20033;-81
2022/08/21 02:47:07;;;;;;;12.20;4.75;;;17.00;99.90;;;;;;5032453;28;20148;-82
2022/08/21 02:49:33;;;;;;;12.00;4.63;;;16.70;99.90;;;;;;5014409;28;20065;-82
2022/08/21 02:51:59;;;;;;;9.23;4.18;;;16.70;99.90;;;;;;5031768;28;20439;-82
2022/08/21 02:54:24;;;;;;;12.13;4.70;;;16.60;99.90;;;;;;5033255;28;20038;-83
2022/08/21 02:56:50;;;;;;;15.60;4.68;;;16.70;99.90;;;;;;5032780;28;20040;-82
2022/08/21 02:59:16;;;;;;;10.45;4.43;;;16.70;99.90;;;;;;5032686;28;20037;-82
2022/08/21 03:01:42;;;;;;;13.32;4.82;;;16.70;99.90;;;;;;5033023;28;20049;-82
2022/08/21 03:04:07;;;;;;;11.60;5.50;;;16.60;99.90;;;;;;5033183;28;20175;-82
2022/08/21 03:06:33;;;;;;;14.38;4.53;;;16.60;99.90;;;;;;5032432;28;20499;-82
2022/08/21 03:08:59;;;;;;;9.13;4.57;;;16.60;99.90;;;;;;5031260;28;20184;-82
2022/08/21 03:11:26;;;;;;;8.27;4.40;;;16.60;99.90;;;;;;5014046;28;20046;-82
2022/08/21 03:13:52;;;;;;;9.88;4.60;;;16.70;99.90;;;;;;5031237;28;20103;-82
2022/08/21 03:16:19;;;;;;;13.40;4.55;;;16.70;99.90;;;;;;5031003;28;20489;-82
2022/08/21 03:18:45;;;;;;;10.05;4.18;;;16.60;99.90;;;;;;5032822;28;20103;-82
2022/08/21 03:21:10;;;;;;;11.15;5.20;;;17.20;99.90;;;;;;5031450;28;20494;-82
2022/08/21 03:23:37;;;;;;;10.88;4.75;;;16.70;99.90;;;;;;5032195;28;20163;-82
2022/08/21 03:26:03;;;;;;;9.73;4.13;;;16.70;99.90;;;;;;5031418;28;20077;-83
2022/08/21 03:28:28;;;;;;;12.70;4.95;;;16.70;99.90;;;;;;5029896;28;20536;-80
2022/08/21 03:30:54;;;;;;;15.05;4.40;;;16.60;99.90;;;;;;5030887;28;20156;-83
2022/08/21 03:33:21;;;;;;;9.55;4.43;;;16.80;99.90;;;;;;5031048;28;20044;-82
2022/08/21 03:35:55;;;;;;;9.93;4.38;;;16.60;99.90;;;;;;5032580;28;20042;-82
2022/08/21 03:38:21;;;;;;;7.93;4.30;;;16.60;99.90;;;;;;5033159;28;20060;-82
2022/08/21 03:40:47;;;;;;;11.35;5.22;;;16.60;99.90;;;;;;5032962;28;20485;-82
2022/08/21 03:43:12;;;;;;;11.60;4.70;;;16.80;99.90;;;;;;5032644;28;20046;-82
2022/08/21 03:45:39;;;;;;;11.82;4.88;;;17.00;99.90;;;;;;5017207;28;20141;-82
2022/08/21 03:48:06;;;;;;;6.90;4.55;;;16.70;99.90;;;;;;5018097;28;20501;-81
2022/08/21 03:50:35;;;;;;;11.38;4.47;;;16.70;99.90;;;;;;5030015;28;20052;-83
2022/08/21 03:53:01;;;;;;;13.02;5.50;;;16.70;99.90;;;;;;5031626;28;20041;-82
2022/08/21 03:55:27;;;;;;;9.88;5.00;;;16.60;99.90;;;;;;5031263;28;20172;-83
2022/08/21 03:57:53;;;;;;;9.00;4.70;;;17.50;99.90;;;;;;5030698;28;20096;-82
2022/08/21 04:00:20;;;;;;;7.85;4.68;;;17.00;99.90;;;;;;5051050;28;20179;-82
2022/08/21 04:02:46;;;;;;;8.40;4.65;;;16.60;99.90;;;;;;5042657;28;20114;-82
2022/08/21 04:05:13;;;;;;;8.18;5.03;;;16.60;99.90;;;;;;5041942;28;20049;-83
2022/08/21 04:07:39;;;;;;;9.05;4.88;;;16.60;99.90;;;;;;5039386;28;20053;-82
2022/08/21 04:10:06;;;;;;;9.35;5.07;;;16.50;99.90;;;;;;5031483;28;20033;-82
2022/08/21 04:12:32;;;;;;;11.00;5.20;;;16.50;99.90;;;;;;5032163;28;20048;-79
2022/08/21 04:14:58;;;;;;;8.45;5.10;;;16.50;99.90;;;;;;5032099;28;20041;-82
2022/08/21 04:17:24;;;;;;;10.73;5.22;;;16.50;99.90;;;;;;5029277;28;20040;-82
2022/08/21 04:19:49;;;;;;;8.57;5.15;;;16.50;99.90;;;;;;5033007;28;20394;-82
2022/08/21 04:22:16;;;;;;;10.07;5.05;;;16.50;99.90;;;;;;5017996;28;20045;-82
2022/08/21 04:24:42;;;;;;;12.00;5.30;;;16.50;99.90;;;;;;5035923;28;20069;-82
2022/08/21 04:27:07;;;;;;;9.35;5.03;;;16.50;99.90;;;;;;5020397;28;20140;-82
2022/08/21 04:29:33;;;;;;;10.23;5.00;;;16.40;99.90;;;;;;5027172;28;20041;-82
2022/08/21 04:31:59;;;;;;;7.32;4.82;;;16.50;99.90;;;;;;5034983;28;20112;-82
2022/08/21 04:34:24;;;;;;;10.98;5.00;;;16.60;99.90;;;;;;5034837;28;20116;-82
2022/08/21 04:36:50;;;;;;;11.05;5.20;;;16.40;99.90;;;;;;5034694;28;20048;-82
2022/08/21 04:39:16;;;;;;;8.55;5.00;;;16.60;99.90;;;;;;5034342;28;20168;-82
2022/08/21 04:41:41;;;;;;;9.63;5.05;;;16.40;99.90;;;;;;5034125;28;20042;-81
2022/08/21 04:44:08;;;;;;;9.80;5.38;;;16.30;99.90;;;;;;5025590;28;20476;-82
2022/08/21 04:46:34;;;;;;;11.80;5.40;;;16.70;99.90;;;;;;5015384;28;20133;-82
2022/08/21 04:49:00;;;;;;;11.18;4.90;;;16.30;99.90;;;;;;5029788;28;20130;-82
2022/08/21 04:51:31;;;;;;;10.85;5.18;;;16.30;99.90;;;;;;5054916;28;20106;-81
2022/08/21 04:54:06;;;;;;;10.75;5.03;;;16.30;99.90;;;;;;5038915;28;20055;-82
2022/08/21 04:56:40;;;;;;;8.93;4.87;;;16.30;99.90;;;;;;5034763;28;20053;-82
2022/08/21 04:59:15;;;;;;;11.20;5.40;;;16.30;99.90;;;;;;5034767;28;20414;-82
2022/08/21 05:01:41;;;;;;;10.68;4.97;;;16.40;99.90;;;;;;5034515;28;20052;-82
2022/08/21 05:04:10;;;;;;;12.60;4.78;;;16.30;99.90;;;;;;5033805;28;20033;-82
2022/08/21 05:06:37;;;;;;;11.30;5.10;;;16.30;99.90;;;;;;5033587;28;20456;-82
2022/08/21 05:09:04;;;;;;;10.40;5.20;;;16.30;99.90;;;;;;5032086;28;20034;-82
2022/08/21 05:11:31;;;;;;;9.98;5.40;;;16.40;99.90;;;;;;5034354;28;20397;-82
2022/08/21 05:13:58;;;;;;;9.77;4.93;;;16.50;99.90;;;;;;5034811;28;20053;-82
2022/08/21 05:16:24;;;;;;;10.00;5.15;;;16.40;99.90;;;;;;5038364;28;20048;-82
2022/08/21 05:18:50;;;;;;;13.43;5.30;;;16.30;99.90;;;;;;5033841;28;20386;-82
2022/08/21 05:21:15;;;;;;;9.48;5.28;;;16.30;99.90;;;;;;5034285;28;20053;-82
2022/08/21 05:23:42;;;;;;;10.32;5.35;;;16.40;99.90;;;;;;5033686;28;20045;-82
2022/08/21 05:26:08;;;;;;;10.43;5.45;;;16.40;99.90;;;;;;5032147;28;20370;-82
2022/08/21 05:28:34;;;;;;;13.40;5.95;;;17.20;99.90;;;;;;5033962;28;20385;-82
2022/08/21 05:31:00;;;;;;;11.35;4.82;;;16.30;99.90;;;;;;5033202;28;20143;-82
2022/08/21 05:33:26;;;;;;;15.57;5.60;;;16.30;99.90;;;;;;5034168;28;20053;-81
2022/08/21 05:35:55;;;;;;;9.98;5.35;;;16.40;99.90;;;;;;5033150;28;20402;-81
2022/08/21 05:38:21;;;;;;;12.27;5.45;;;16.30;99.90;;;;;;5032316;28;20429;-82
2022/08/21 05:40:47;;;;;;;11.18;5.15;;;16.30;99.90;;;;;;5037858;28;20048;-82
2022/08/21 05:43:14;;;;;;;10.23;5.25;;;16.30;99.90;;;;;;5033149;28;20131;-84
2022/08/21 05:45:40;;;;;;;12.25;5.38;;;16.30;99.90;;;;;;5022118;28;20473;-84
2022/08/21 05:48:09;;;;;;;13.38;5.38;;;16.30;99.90;;;;;;5016431;28;20088;-83
2022/08/21 05:50:37;;;;;;;10.52;5.20;;;16.40;99.90;;;;;;5032750;28;20405;-82
2022/08/21 05:53:03;;;;;;;12.13;5.40;;;16.40;99.90;;;;;;5033645;28;20099;-83
2022/08/21 05:55:28;;;;;;;11.80;5.30;;;16.30;99.90;;;;;;5033787;28;20049;-82
2022/08/21 05:57:54;;;;;;;12.02;5.72;;;16.40;99.90;;;;;;5033579;28;20044;-83
2022/08/21 06:00:22;;;;;;;13.18;5.68;;;16.40;99.90;;;;;;5034009;28;20045;-82
2022/08/21 06:02:50;;;;;;;13.07;5.38;;;16.40;99.90;;;;;;5028900;28;20041;-82
2022/08/21 06:05:16;;;;;;;10.48;5.25;;;16.30;99.90;;;;;;5039710;28;20095;-82
2022/08/21 06:07:42;;;;;;;11.13;5.43;;;16.40;99.90;;;;;;5018200;28;20088;-81
2022/08/21 06:10:07;;;;;;;13.27;5.72;;;16.40;99.90;;;;;;5031325;28;20441;-81
2022/08/21 06:12:33;;;;;;;15.85;5.15;;;16.50;99.90;;;;;;5032253;28;20049;-81
2022/08/21 06:14:59;;;;;;;12.80;5.38;;;16.50;99.90;;;;;;5031696;28;20339;-81
2022/08/21 06:17:24;;;;;;;11.70;5.13;;;16.50;99.90;;;;;;5033452;28;20048;-80
2022/08/21 06:19:54;;;;;;;11.43;4.82;;;16.60;99.90;;;;;;5033467;28;20041;-80
2022/08/21 06:22:21;;;;;;;10.98;5.38;;;16.60;99.90;;;;;;5032885;28;20029;-82
2022/08/21 06:24:47;;;;;;;11.15;5.22;;;16.60;99.90;;;;;;5033071;28;20042;-81
2022/08/21 06:27:12;;;;;;;10.95;5.22;;;16.70;99.90;;;;;;5032471;28;20099;-82
2022/08/21 06:29:38;;;;;;;15.23;5.50;;;16.80;99.90;;;;;;5031773;28;20536;-82
2022/08/21 06:32:06;;;;;;;11.85;5.22;;;16.90;99.90;;;;;;5032289;28;20037;-82
2022/08/21 06:34:35;;;;;;;12.27;4.78;;;16.90;99.90;;;;;;5034022;28;20063;-78
2022/08/21 06:37:00;;;;;;;10.60;5.03;;;16.90;99.90;;;;;;5033373;28;20124;-78
2022/08/21 06:39:26;;;;;;;12.35;5.25;;;16.90;99.90;;;;;;5035565;28;20117;-79
2022/08/21 06:41:52;;;;;;;12.68;5.45;;;17.50;99.90;;;;;;5037465;28;20037;-78
2022/08/21 06:44:18;;;;;;;10.52;4.72;;;17.10;99.90;;;;;;5033828;28;20482;-82
2022/08/21 06:46:43;;;;;;;13.93;4.90;;;17.30;99.90;;;;;;5031849;28;20049;-81
2022/08/21 06:49:09;;;;;;;13.93;4.72;;;17.30;99.90;;;;;;5031733;28;20053;-82
2022/08/21 06:51:34;;;;;;;10.73;4.40;;;17.30;99.90;;;;;;5032768;28;20053;-82
2022/08/21 06:54:00;;;;;;;11.20;4.47;;;17.40;99.90;;;;;;5033308;28;20462;-82
2022/08/21 06:56:26;;;;;;;11.02;3.80;;;17.30;99.90;;;;;;5031990;28;20242;-82
2022/08/21 06:58:52;;;;;;;15.13;3.97;;;17.50;99.90;;;;;;5033089;28;20132;-81
2022/08/21 07:01:26;;;;;;;10.77;4.00;;;17.50;99.90;;;;;;5031649;28;20037;-81
2022/08/21 07:03:51;;;;;;;10.98;4.00;;;17.80;99.90;;;;;;5031597;28;20493;-82
2022/08/21 07:06:17;;;;;;;10.07;3.70;;;17.80;99.90;;;;;;5031735;28;20099;-82
2022/08/21 07:08:43;;;;;;;8.93;3.38;;;17.80;99.90;;;;;;5032855;28;20045;-82
2022/08/21 07:11:17;;;;;;;8.20;3.63;;;18.40;99.90;;;;;;5033235;28;20448;-82
2022/08/21 07:13:42;;;;;;;10.57;3.10;;;18.10;99.90;;;;;;5033229;28;20355;-82
2022/08/21 07:16:08;;;;;;;12.00;3.70;;;18.30;99.90;;;;;;5033050;28;20107;-81
2022/08/21 07:18:34;;;;;;;11.13;3.20;;;18.40;99.90;;;;;;5033046;28;20091;-82
2022/08/21 07:21:03;;;;;;;10.48;3.35;;;18.40;99.90;;;;;;5032553;28;20041;-82
2022/08/21 07:23:33;;;;;;;12.43;3.65;;;18.50;99.90;;;;;;5032782;28;20033;-81
2022/08/21 07:26:00;;;;;;;9.30;3.25;;;18.50;99.90;;;;;;5032347;28;20036;-82
2022/08/21 07:28:26;;;;;;;10.32;3.33;;;18.60;99.90;;;;;;5030595;28;20444;-82
2022/08/21 07:30:54;;;;;;;13.25;3.08;;;18.70;99.90;;;;;;5031583;28;20128;-82
2022/08/21 07:33:20;;;;;;;8.65;2.92;;;18.80;99.90;;;;;;5031963;28;20053;-81
2022/08/21 07:35:45;;;;;;;12.18;3.25;;;18.90;99.90;;;;;;5031832;28;20038;-81
2022/08/21 07:38:11;;;;;;;7.47;2.88;;;19.00;99.90;;;;;;5032010;28;20552;-82
2022/08/21 07:40:37;;;;;;;10.32;3.00;;;19.10;99.90;;;;;;5031851;28;20040;-82
2022/08/21 07:43:02;;;;;;;9.63;2.95;;;19.20;99.90;;;;;;5031617;28;20140;-82
2022/08/21 07:45:28;;;;;;;7.35;2.53;;;19.20;99.90;;;;;;5030647;28;20094;-81
2022/08/21 07:47:54;;;;;;;7.80;2.42;;;19.30;99.90;;;;;;5030427;28;20404;-81
2022/08/21 07:50:20;;;;;;;8.05;2.30;;;19.40;99.90;;;;;;5031847;28;20049;-82
2022/08/21 07:52:46;;;;;;;8.13;2.00;;;19.40;99.90;;;;;;5029930;28;20044;-80
2022/08/21 07:55:15;;;;;;;9.13;2.67;;;19.50;99.90;;;;;;5033410;28;20041;-81
2022/08/21 07:57:41;;;;;;;8.90;2.45;;;19.60;99.90;;;;;;5033301;28;20048;-82
2022/08/21 08:00:11;;;;;;;10.23;2.90;;;19.60;99.90;;;;;;5033285;28;20048;-81
2022/08/21 08:02:37;;;;;;;13.05;2.63;;;19.60;99.90;;;;;;5030164;28;20049;-81
2022/08/21 08:05:04;;;;;;;12.02;2.50;;;19.60;99.90;;;;;;5034282;28;20504;-81
2022/08/21 08:07:30;;;;;;;8.70;2.70;;;19.70;99.90;;;;;;5033296;28;20072;-81
2022/08/21 08:09:56;;;;;;;10.88;2.75;;;19.80;99.90;;;;;;5035157;28;20422;-78
2022/08/21 08:12:21;;;;;;;6.75;2.58;;;19.80;99.90;;;;;;5034834;28;20128;-78
2022/08/21 08:14:47;;;;;;;10.20;2.40;;;19.90;99.90;;;;;;5032344;28;20092;-78
2022/08/21 08:17:16;;;;;;;7.35;2.53;;;19.90;99.90;;;;;;5029089;28;20099;-78
2022/08/21 08:19:41;;;;;;;10.52;2.55;;;20.00;99.90;;;;;;5028579;28;20056;-78
2022/08/21 08:22:15;;;;;;;8.15;2.55;;;20.00;99.90;;;;;;5032319;28;20037;-78
2022/08/21 08:24:41;;;;;;;10.75;2.88;;;20.10;99.90;;;;;;5034757;28;20128;-78
2022/08/21 08:27:06;;;;;;;9.88;2.72;;;20.20;99.90;;;;;;5039475;28;20132;-78
2022/08/21 08:29:32;;;;;;;11.10;2.65;;;20.30;99.90;;;;;;5045235;28;20129;-78
2022/08/21 08:31:58;;;;;;;10.02;2.45;;;20.40;99.90;;;;;;5023971;28;20103;-78
2022/08/21 08:34:23;;;;;;;9.30;2.83;;;20.60;99.90;;;;;;5031396;28;20504;-78
2022/08/21 08:36:49;;;;;;;8.32;2.70;;;20.70;99.90;;;;;;5032021;28;20041;-78
2022/08/21 08:39:15;;;;;;;9.98;2.75;;;20.80;99.90;;;;;;5016122;28;20084;-78
2022/08/21 08:41:43;;;;;;;13.48;3.22;;;20.90;99.90;;;;;;5033020;28;20159;-78
2022/08/21 08:44:08;;;;;;;8.50;2.50;;;21.10;99.90;;;;;;5032191;28;20053;-78
2022/08/21 08:46:40;;;;;;;10.93;2.90;;;21.30;99.90;;;;;;5034064;28;20041;-78
2022/08/21 08:49:22;;;;;;;9.85;3.15;;;21.40;99.90;;;;;;5033068;28;20489;-78
2022/08/21 08:51:57;;;;;;;12.10;3.30;;;21.60;99.90;;;;;;5015716;28;20383;-80
2022/08/21 08:54:38;;;;;;;;;;;21.70;99.90;;;;;;5016349;28;20453;-79
2022/08/21 08:57:10;;;;;;;9.63;3.13;;;21.90;99.90;;;;;;5015728;28;19921;-79
2022/08/21 08:59:49;;;;;;;9.65;3.13;;;22.20;99.90;;;;;;5021062;28;20093;-78
2022/08/21 09:02:16;;;;;;;10.75;3.03;;;22.20;99.90;;;;;;5033965;28;20077;-78
2022/08/21 09:04:45;;;;;;;13.40;3.05;;;22.30;99.90;;;;;;5032903;28;20044;-79
2022/08/21 09:07:45;;;;;;;11.82;3.13;;;22.30;99.90;;;;;;5034195;28;20049;-79
2022/08/21 09:10:20;;;;;;;9.07;2.70;;;22.30;99.90;;;;;;5015214;28;20129;-79
2022/08/21 09:12:48;;;;;;;10.30;3.58;;;22.40;99.90;;;;;;5041461;28;20049;-79
2022/08/21 09:15:31;;;;;;;12.57;3.00;;;22.60;99.90;;;;;;5045898;28;20095;-79
2022/08/21 09:18:09;;;;;;;11.48;2.90;;;22.80;99.90;;;;;;5053833;28;20041;-79
2022/08/21 09:20:40;;;;;;;11.25;3.10;;;23.20;99.90;;;;;;5042405;28;20120;-79
2022/08/21 09:23:41;;;;;;;12.90;2.90;;;23.60;99.90;;;;;;5032285;28;20087;-79
2022/08/21 09:26:14;;;;;;;13.13;3.03;;;23.90;99.90;;;;;;5033306;28;20087;-79
2022/08/21 09:28:43;;;;;;;10.38;2.70;;;24.30;99.90;;;;;;5034499;28;20077;-79
2022/08/21 09:31:21;;;;;;;11.20;2.90;;;24.40;99.90;;;;;;5031441;28;20125;-80
2022/08/21 09:33:47;;;;;;;8.77;2.88;;;24.50;99.90;;;;;;5034512;28;20076;-80
2022/08/21 09:36:34;;;;;;;10.23;2.80;;;24.90;99.90;;;;;;5034659;28;20119;-80
2022/08/21 09:38:59;;;;;;;10.13;2.80;;;25.20;99.90;;;;;;5039292;28;20106;-79
2022/08/21 09:41:31;;;;;;;9.27;2.63;;;25.50;99.90;;;;;;5034750;28;20740;-80
2022/08/21 09:43:57;;;;;;;11.48;2.95;;;25.70;99.90;;;;;;5032498;28;20095;-80
2022/08/21 09:46:25;;;;;;;10.48;2.72;;;25.90;99.90;;;;;;5034380;28;20037;-79
2022/08/21 09:48:54;;;;;;;12.45;3.13;;;26.00;99.90;;;;;;5032196;28;20057;-79
2022/08/21 09:51:26;;;;;;;9.80;2.30;;;26.30;99.90;;;;;;5033522;28;20041;-82
2022/08/21 09:54:04;;;;;;;14.45;3.20;;;26.30;99.90;;;;;;5037337;28;20033;-82
2022/08/21 09:59:32;;;;;;;9.95;2.47;;;26.10;99.90;;;;;;5031419;28;20113;-85
2022/08/21 10:02:01;;;;;;;9.63;2.42;;;26.10;99.90;;;;;;5020957;28;20379;-85
2022/08/21 10:04:34;;;;;;;9.00;2.80;;;26.20;99.90;;;;;;5014638;28;20133;-86
2022/08/21 10:07:12;;;;;;;10.15;2.70;;;26.70;99.90;;;;;;5012852;28;20054;-85
2022/08/21 10:09:38;;;;;;;13.15;2.95;;;26.80;99.90;;;;;;5014684;28;20390;-84
2022/08/21 10:12:03;;;;;;;7.80;2.40;;;26.90;99.90;;;;;;5015024;28;20076;-85
2022/08/21 10:14:36;;;;;;;10.77;2.92;;;27.00;99.90;;;;;;5016066;28;20056;-85
2022/08/21 10:17:15;;;;;;;9.15;2.25;;;27.00;99.90;;;;;;5014977;28;20053;-84
2022/08/21 10:19:54;;;;;;;10.07;2.40;;;27.30;99.90;;;;;;5016205;28;20481;-85
2022/08/21 10:22:37;;;;;;;10.32;2.40;;;27.70;99.90;;;;;;5015028;28;20041;-85
2022/08/21 10:25:09;;;;;;;8.60;2.28;;;28.00;99.90;;;;;;5014635;28;20409;-85
2022/08/21 10:27:59;;;;;;;10.40;2.47;;;28.60;98.60;;;;;;5014577;28;20068;-87
2022/08/21 10:30:44;;;;;;;8.45;2.55;;;29.00;97.60;;;;;;5012770;28;20041;-85
2022/08/21 10:33:33;;;;;;;10.38;2.35;;;29.20;96.70;;;;;;5014730;28;20050;-86
2022/08/21 10:36:31;;;;;;;11.70;2.30;;;28.80;96.30;;;;;;5014775;28;20183;-85
2022/08/21 10:39:15;;;;;;;11.80;2.40;;;28.20;96.50;;;;;;5013763;28;20058;-85
2022/08/21 10:41:59;;;;;;;8.80;2.60;;;27.40;97.90;;;;;;5013710;28;20430;-85
2022/08/21 10:44:30;;;;;;;9.50;2.33;;;26.90;98.60;;;;;;5014566;28;20046;-84
2022/08/21 10:47:06;;;;;;;7.00;2.40;;;26.30;99.00;;;;;;5014690;28;20391;-85
2022/08/21 10:50:04;;;;;;;7.57;2.30;;;25.90;99.70;;;;;;5015105;28;20042;-84
2022/08/21 10:53:01;;;;;;;7.53;2.50;;;25.40;99.90;;;;;;5013922;28;20417;-85
2022/08/21 10:55:32;;;;;;;7.63;2.10;;;24.90;99.90;;;;;;5001704;28;20409;-84
2022/08/21 10:58:04;;;;;;;8.80;2.40;;;24.70;99.90;;;;;;5014067;28;20042;-84
2022/08/21 11:00:44;;;;;;;10.45;2.63;;;24.40;99.90;;;;;;5013416;28;20084;-86
2022/08/21 11:03:29;;;;;;;9.07;2.30;;;24.20;99.90;;;;;;5014106;28;20136;-87
2022/08/21 11:06:00;;;;;;;9.68;2.38;;;24.20;99.90;;;;;;5012275;28;20136;-86
2022/08/21 11:08:31;;;;;;;8.25;2.30;;;24.20;99.90;;;;;;5013994;28;20402;-86
2022/08/21 11:11:23;;;;;;;7.75;2.30;;;24.00;99.90;;;;;;5014086;28;20073;-86
2022/08/21 11:14:04;;;;;;;8.93;2.83;;;24.10;99.90;;;;;;5011515;28;20378;-86
2022/08/21 11:16:36;;;;;;;8.30;2.53;;;24.20;99.90;;;;;;5029432;28;20577;-85
2022/08/21 11:19:07;;;;;;;8.57;2.67;;;24.70;99.90;;;;;;5014835;28;20042;-86
2022/08/21 11:21:46;;;;;;;9.73;2.70;;;25.60;99.90;;;;;;5013974;28;20128;-84
2022/08/21 11:24:50;;;;;;;10.30;2.50;;;26.50;99.90;;;;;;5013922;28;20042;-84
2022/08/21 11:27:22;;;;;;;8.32;2.42;;;28.50;99.90;;;;;;5015071;28;20432;-85
2022/08/21 11:29:55;;;;;;;10.13;2.38;;;30.20;97.90;;;;;;5017920;28;20046;-85
2022/08/21 11:32:29;;;;;;;10.02;2.50;;;31.10;97.20;;;;;;5017530;28;20179;-85
2022/08/21 11:35:21;;;;;;;7.63;2.25;;;32.80;93.50;;;;;;5016594;28;20111;-84
2022/08/21 11:38:26;;;;;;;9.30;2.70;;;33.80;91.70;;;;;;5014666;28;20493;-84
2022/08/21 11:41:10;;;;;;;9.60;2.50;;;34.80;90.10;;;;;;5017242;28;20401;-86
2022/08/21 11:43:38;;;;;;;7.60;2.25;;;35.50;89.40;;;;;;5017373;28;20128;-84
2022/08/21 11:46:30;;;;;;;5.43;2.05;;;36.60;85.80;;;;;;5025005;28;20045;-84
2022/08/21 11:49:16;;;;;;;7.50;2.20;;;37.70;81.10;;;;;;5038006;28;20363;-84
2022/08/21 11:52:13;;;;;;;9.40;2.33;;;37.50;80.50;;;;;;5037327;28;20053;-83
2022/08/21 11:54:48;;;;;;;10.68;2.40;;;37.10;81.20;;;;;;5018828;28;20048;-84
2022/08/21 11:57:30;;;;;;;;;;;36.50;79.90;;;;;;5036229;28;20041;-85
2022/08/21 12:00:10;;;;;;;11.75;2.70;;;35.70;79.90;;;;;;5037448;28;19927;-85
2022/08/21 12:02:44;;;;;;;11.55;2.92;;;33.50;82.50;;;;;;5037050;28;20052;-85
2022/08/21 12:05:22;;;;;;;6.65;2.28;;;32.30;84.60;;;;;;5037039;28;20049;-84
2022/08/21 12:07:59;;;;;;;11.70;2.50;;;31.30;86.60;;;;;;5038130;28;20045;-85
2022/08/21 12:10:32;;;;;;;7.65;2.40;;;31.20;88.20;;;;;;5038042;28;20053;-85
2022/08/21 12:13:08;;;;;;;9.65;2.42;;;32.90;87.20;;;;;;5037867;28;20029;-85
2022/08/21 12:15:34;;;;;;;11.77;2.30;;;34.70;83.70;;;;;;5032846;28;20427;-86
2022/08/21 12:18:01;;;;;;;7.97;2.33;;;36.20;81.40;;;;;;5017965;28;20045;-85
2022/08/21 12:20:43;;;;;;;6.63;2.22;;;37.30;78.60;;;;;;5018244;28;20103;-85
2022/08/21 12:23:11;;;;;;;4.80;1.90;;;38.20;76.80;;;;;;5015025;28;20467;-86
2022/08/21 12:25:40;;;;;;;6.38;2.05;;;39.20;74.60;;;;;;5017150;28;20128;-86
2022/08/21 12:28:15;;;;;;;7.82;2.15;;;39.90;71.70;;;;;;5017326;28;20038;-86
2022/08/21 12:30:44;;;;;;;6.63;2.10;;;39.40;70.70;;;;;;5015590;28;20521;-86
2022/08/21 12:33:31;;;;;;;7.00;2.08;;;39.20;70.80;;;;;;5015478;28;20377;-85
2022/08/21 12:36:11;;;;;;;6.40;2.00;;;39.40;70.00;;;;;;5034897;28;20125;-86
2022/08/21 12:39:00;;;;;;;8.15;2.60;;;39.40;70.40;;;;;;5035369;28;20128;-86
2022/08/21 12:41:33;;;;;;;6.80;2.30;;;38.50;69.80;;;;;;5036160;28;20148;-85
2022/08/21 12:44:02;;;;;;;5.65;1.98;;;36.90;70.80;;;;;;5038167;28;20044;-86
2022/08/21 12:46:44;;;;;;;6.22;2.03;;;35.30;72.10;;;;;;5036895;28;20486;-85
2022/08/21 12:49:31;;;;;;;8.10;2.45;;;33.70;73.50;;;;;;5036198;28;20050;-85
2022/08/21 12:52:20;;;;;;;7.38;2.10;;;32.30;75.70;;;;;;5035043;28;20038;-86
2022/08/21 12:54:46;;;;;;;9.57;2.15;;;31.50;77.60;;;;;;5030372;28;20099;-85
2022/08/21 12:57:25;;;;;;;7.40;1.90;;;30.80;78.70;;;;;;5034440;28;20046;-86